createdAt,value
2022-10-15T00:02:01.958Z,19.33
2022-10-15T00:04:30.641Z,20.00
2022-10-15T00:06:58.614Z,24.00
2022-10-15T00:09:26.229Z,19.70
2022-10-15T00:11:53.399Z,17.73
2022-10-15T00:14:20.783Z,22.33
2022-10-15T00:16:49.365Z,17.47
2022-10-15T00:19:16.935Z,18.00
2022-10-15T00:21:44.338Z,23.97
2022-10-15T00:24:11.578Z,19.13
2022-10-15T00:26:38.851Z,18.20
2022-10-15T00:29:06.249Z,18.67
2022-10-15T00:31:33.609Z,19.37
2022-10-15T00:34:02.859Z,17.43
2022-10-15T00:36:30.895Z,17.10
2022-10-15T00:38:58.429Z,17.80
2022-10-15T00:41:28.189Z,20.33
2022-10-15T00:55:28.496Z,20.13
2022-10-15T00:58:20.994Z,18.50
2022-10-15T01:00:48.294Z,19.70
2022-10-15T01:03:15.550Z,19.83
2022-10-15T01:05:44.795Z,18.73
2022-10-15T01:08:11.966Z,18.90
2022-10-15T01:10:45.068Z,19.90
2022-10-15T01:16:04.588Z,21.53
2022-10-15T01:18:33.809Z,17.47
2022-10-15T01:21:04.323Z,23.03
2022-10-15T01:23:50.323Z,23.63
2022-10-15T01:26:42.222Z,19.20
2022-10-15T01:29:20.059Z,23.47
2022-10-15T01:31:53.221Z,23.47
2022-10-15T01:34:28.449Z,20.50
2022-10-15T01:36:58.094Z,23.20
2022-10-15T01:39:28.745Z,23.30
2022-10-15T01:42:00.857Z,26.57
2022-10-15T01:44:31.070Z,22.50
2022-10-15T01:47:14.803Z,22.43
2022-10-15T01:49:44.735Z,24.97
2022-10-15T01:52:15.261Z,24.40
2022-10-15T01:54:43.362Z,21.47
2022-10-15T01:57:11.769Z,22.97
2022-10-15T01:59:43.802Z,24.27
2022-10-15T02:02:11.127Z,24.47
2022-10-15T02:04:54.029Z,21.23
2022-10-15T02:07:29.020Z,24.00
2022-10-15T02:09:59.154Z,20.90
2022-10-15T02:12:31.796Z,22.27
2022-10-15T02:15:02.478Z,22.93
2022-10-15T02:23:18.263Z,20.93
2022-10-15T02:25:45.715Z,21.27
2022-10-15T02:28:16.353Z,25.13
2022-10-15T02:30:46.501Z,22.73
2022-10-15T02:33:14.090Z,23.27
2022-10-15T02:35:42.598Z,22.57
2022-10-15T02:40:47.098Z,20.23
2022-10-15T02:43:16.580Z,22.33
2022-10-15T02:45:43.821Z,22.37
2022-10-15T02:48:11.107Z,23.27
2022-10-15T02:50:39.547Z,24.87
2022-10-15T02:53:06.911Z,25.17
2022-10-15T02:55:35.385Z,23.83
2022-10-15T02:58:04.202Z,22.67
2022-10-15T03:00:31.831Z,22.30
2022-10-15T03:02:59.417Z,21.87
2022-10-15T03:07:59.891Z,19.90
2022-10-15T03:10:28.351Z,22.17
2022-10-15T03:12:55.627Z,20.67
2022-10-15T03:15:24.666Z,19.80
2022-10-15T03:17:51.952Z,21.07
2022-10-15T03:20:19.622Z,20.67
2022-10-15T03:22:47.160Z,21.40
2022-10-15T03:25:14.451Z,19.73
2022-10-15T03:27:41.733Z,19.07
2022-10-15T03:30:22.176Z,18.90
2022-10-15T03:32:51.550Z,19.20
2022-10-15T03:35:18.875Z,19.20
2022-10-15T03:37:46.351Z,19.93
2022-10-15T03:40:14.680Z,19.83
2022-10-15T03:42:43.745Z,22.17
2022-10-15T03:45:12.078Z,19.17
2022-10-15T03:47:39.385Z,19.90
2022-10-15T03:50:10.150Z,21.77
2022-10-15T03:52:37.465Z,21.07
2022-10-15T03:55:05.148Z,22.57
2022-10-15T03:57:32.866Z,19.90
2022-10-15T04:00:05.243Z,21.13
2022-10-15T04:02:39.394Z,23.10
2022-10-15T04:05:11.796Z,20.07
2022-10-15T04:07:46.832Z,18.17
2022-10-15T04:10:19.246Z,22.17
2022-10-15T04:12:46.489Z,22.83
2022-10-15T04:15:16.491Z,20.87
2022-10-15T04:17:54.404Z,19.90
2022-10-15T04:20:23.699Z,21.80
2022-10-15T04:22:50.903Z,20.30
2022-10-15T04:25:18.341Z,19.30
2022-10-15T04:27:46.815Z,19.23
2022-10-15T04:30:17.894Z,18.20
2022-10-15T04:32:52.740Z,20.77
2022-10-15T04:35:24.906Z,18.67
2022-10-15T04:38:08.309Z,18.40
2022-10-15T04:40:59.327Z,20.87
2022-10-15T04:43:30.566Z,20.37
2022-10-15T04:46:03.403Z,21.50
2022-10-15T04:48:31.350Z,20.23
2022-10-15T04:51:05.357Z,22.67
2022-10-15T04:53:43.179Z,21.60
2022-10-15T04:56:11.905Z,21.10
2022-10-15T04:58:39.117Z,19.90
2022-10-15T05:04:24.742Z,22.03
2022-10-15T05:06:59.522Z,23.23
2022-10-15T05:09:27.083Z,22.67
2022-10-15T05:11:54.642Z,22.97
2022-10-15T05:14:22.281Z,25.50
2022-10-15T05:17:05.458Z,22.37
2022-10-15T05:22:22.229Z,22.67
2022-10-15T05:24:53.938Z,22.20
2022-10-15T05:27:30.091Z,21.73
2022-10-15T05:29:57.509Z,22.27
2022-10-15T05:32:31.865Z,22.33
2022-10-15T05:34:59.429Z,24.03
2022-10-15T05:37:38.527Z,20.80
2022-10-15T05:40:07.519Z,20.53
2022-10-15T05:42:34.729Z,22.03
2022-10-15T05:45:01.967Z,22.57
2022-10-15T05:47:29.145Z,22.60
2022-10-15T05:50:12.778Z,22.33
2022-10-15T05:52:46.066Z,22.77
2022-10-15T05:55:19.056Z,21.70
2022-10-15T05:57:46.259Z,21.10
2022-10-15T06:00:14.303Z,18.83
2022-10-15T06:02:41.554Z,16.80
2022-10-15T06:05:08.962Z,16.97
2022-10-15T06:07:36.399Z,16.57
2022-10-15T06:10:27.855Z,18.07
2022-10-15T06:13:18.960Z,17.30
2022-10-15T06:15:52.917Z,18.30
2022-10-15T06:18:20.151Z,17.33
2022-10-15T06:20:51.705Z,17.47
2022-10-15T06:23:19.226Z,17.03
2022-10-15T06:25:46.498Z,13.57
2022-10-15T06:28:13.679Z,16.23
2022-10-15T06:30:43.619Z,19.17
2022-10-15T06:35:44.445Z,18.63
2022-10-15T06:38:13.551Z,13.87
2022-10-15T06:40:40.747Z,18.73
2022-10-15T06:43:08.454Z,17.50
2022-10-15T06:45:37.443Z,20.57
2022-10-15T06:48:09.087Z,24.80
2022-10-15T06:50:38.707Z,24.83
2022-10-15T06:53:06.994Z,22.40
2022-10-15T06:55:34.251Z,24.70
2022-10-15T06:58:01.630Z,32.17
2022-10-15T07:00:29.832Z,32.33
2022-10-15T07:02:57.086Z,30.47
2022-10-15T07:05:24.296Z,25.87
2022-10-15T07:07:56.776Z,27.90
2022-10-15T07:10:25.489Z,32.00
2022-10-15T07:12:53.018Z,32.53
2022-10-15T07:15:20.242Z,28.40
2022-10-15T07:17:47.905Z,35.67
2022-10-15T07:20:17.768Z,28.43
2022-10-15T07:22:47.253Z,28.03
2022-10-15T07:25:16.012Z,25.60
2022-10-15T07:27:43.414Z,26.83
2022-10-15T07:30:11.343Z,26.77
2022-10-15T07:32:38.734Z,21.27
2022-10-15T07:35:06.198Z,26.30
2022-10-15T07:37:33.591Z,24.80
2022-10-15T07:40:00.762Z,22.30
2022-10-15T07:42:29.353Z,22.23
2022-10-15T07:44:56.584Z,18.20
2022-10-15T07:47:24.065Z,18.83
2022-10-15T07:49:51.498Z,19.57
2022-10-15T07:52:18.817Z,20.97
2022-10-15T07:54:46.006Z,18.37
2022-10-15T07:57:17.183Z,13.00
2022-10-15T07:59:45.733Z,18.93
2022-10-15T08:02:15.540Z,16.27
2022-10-15T08:04:42.762Z,15.97
2022-10-15T08:07:10.434Z,14.33
2022-10-15T08:09:38.114Z,12.13
2022-10-15T08:12:05.790Z,13.93
2022-10-15T08:14:33.310Z,16.03
2022-10-15T08:17:02.246Z,15.53
2022-10-15T08:19:29.474Z,17.30
2022-10-15T08:21:56.667Z,21.23
2022-10-15T08:24:23.883Z,17.93
2022-10-15T08:26:51.079Z,20.57
2022-10-15T08:29:18.287Z,20.97
2022-10-15T08:31:45.494Z,18.57
2022-10-15T08:34:14.064Z,21.47
2022-10-15T08:36:41.338Z,16.53
2022-10-15T08:39:08.516Z,16.43
2022-10-15T08:41:38.363Z,12.63
2022-10-15T08:44:06.062Z,20.80
2022-10-15T08:46:36.209Z,20.27
2022-10-15T08:49:03.834Z,16.37
2022-10-15T08:51:35.370Z,20.50
2022-10-15T08:54:04.097Z,21.87
2022-10-15T08:56:33.428Z,19.63
2022-10-15T08:59:12.934Z,21.10
2022-10-15T09:01:44.502Z,16.50
2022-10-15T09:04:18.167Z,16.77
2022-10-15T09:06:47.708Z,16.77
2022-10-15T09:09:18.819Z,18.33
2022-10-15T09:11:51.450Z,18.10
2022-10-15T09:14:20.683Z,18.00
2022-10-15T09:16:49.347Z,16.63
2022-10-15T09:19:18.045Z,19.30
2022-10-15T09:21:47.214Z,19.57
2022-10-15T09:24:17.792Z,20.33
2022-10-15T09:26:50.795Z,18.93
2022-10-15T09:29:23.006Z,19.37
2022-10-15T09:37:43.989Z,19.33
2022-10-15T09:40:21.621Z,15.13
2022-10-15T09:42:50.980Z,18.60
2022-10-15T09:45:18.526Z,13.07
2022-10-15T09:47:58.675Z,15.93
2022-10-15T09:50:44.335Z,15.47
2022-10-15T09:53:27.440Z,16.47
2022-10-15T09:56:02.207Z,13.70
2022-10-15T09:58:31.545Z,15.13
2022-10-15T10:01:00.820Z,13.37
2022-10-15T10:03:35.370Z,9.37
2022-10-15T10:06:04.394Z,10.27
2022-10-15T10:08:40.460Z,10.03
2022-10-15T10:11:09.263Z,9.77
2022-10-15T10:13:40.667Z,10.20
2022-10-15T10:16:09.709Z,7.50
2022-10-15T10:18:56.082Z,8.50
2022-10-15T10:21:36.242Z,8.30
2022-10-15T10:24:21.310Z,7.67
2022-10-15T10:26:48.718Z,6.67
2022-10-15T10:29:33.051Z,6.53
2022-10-15T10:32:01.110Z,10.23
2022-10-15T10:34:33.038Z,9.37
2022-10-15T10:37:06.127Z,6.73
2022-10-15T10:39:35.404Z,7.47
2022-10-15T10:42:04.574Z,7.90
2022-10-15T10:44:32.758Z,6.40
2022-10-15T10:49:56.382Z,5.80
2022-10-15T10:52:27.295Z,5.80
2022-10-15T10:54:59.203Z,6.97
2022-10-15T10:57:29.642Z,4.80
2022-10-15T10:59:57.534Z,6.37
2022-10-15T11:02:25.037Z,5.67
2022-10-15T11:04:52.335Z,4.83
2022-10-15T11:07:22.748Z,6.47
2022-10-15T11:09:55.438Z,6.57
2022-10-15T11:12:36.564Z,5.80
2022-10-15T11:15:09.467Z,5.17
2022-10-15T11:17:44.219Z,6.07
2022-10-15T11:20:38.994Z,6.87
2022-10-15T11:23:14.047Z,7.43
2022-10-15T11:25:47.171Z,7.60
2022-10-15T11:28:20.859Z,7.77
2022-10-15T11:30:50.963Z,7.40
2022-10-15T11:33:25.555Z,8.87
2022-10-15T11:36:01.722Z,7.83
2022-10-15T11:38:32.799Z,7.10
2022-10-15T11:41:08.394Z,7.10
2022-10-15T11:43:44.653Z,5.90
2022-10-15T11:46:15.743Z,6.63
2022-10-15T11:48:58.131Z,7.10
2022-10-15T11:51:48.625Z,6.37
2022-10-15T11:54:20.981Z,6.37
2022-10-15T11:56:49.688Z,6.13
2022-10-15T11:59:23.271Z,5.20
2022-10-15T12:01:51.714Z,5.57
2022-10-15T12:04:20.766Z,5.70
2022-10-15T12:06:50.581Z,5.87
2022-10-15T12:09:22.866Z,7.00
2022-10-15T12:11:52.484Z,7.67
2022-10-15T12:14:25.857Z,8.77
2022-10-15T12:16:59.666Z,5.23
2022-10-15T12:19:39.778Z,7.53
2022-10-15T12:22:08.028Z,5.27
2022-10-15T12:24:53.366Z,5.20
2022-10-15T12:27:22.912Z,5.47
2022-10-15T12:29:52.956Z,6.17
2022-10-15T12:32:24.054Z,5.97
2022-10-15T12:40:31.988Z,6.30
2022-10-15T12:43:00.631Z,4.23
2022-10-15T12:45:37.354Z,3.33
2022-10-15T12:48:18.277Z,3.37
2022-10-15T12:50:46.735Z,3.90
2022-10-15T12:53:29.977Z,2.40
2022-10-15T12:56:14.158Z,2.93
2022-10-15T12:58:42.088Z,1.93
2022-10-15T13:01:24.282Z,3.17
2022-10-15T13:03:54.974Z,3.37
2022-10-15T13:06:40.261Z,2.60
2022-10-15T13:09:19.609Z,4.43
2022-10-15T13:11:47.867Z,4.87
2022-10-15T13:14:20.777Z,3.33
2022-10-15T13:16:48.766Z,3.70
2022-10-15T13:19:20.738Z,4.97
2022-10-15T13:21:54.147Z,3.60
2022-10-15T13:24:22.685Z,3.13
2022-10-15T13:26:49.933Z,2.77
2022-10-15T13:29:18.221Z,7.17
2022-10-15T13:31:45.820Z,3.60
2022-10-15T13:34:16.895Z,4.00
2022-10-15T13:36:45.727Z,3.23
2022-10-15T13:39:22.209Z,6.23
2022-10-15T13:41:49.879Z,3.03
2022-10-15T13:44:23.825Z,1.83
2022-10-15T13:46:51.812Z,2.87
2022-10-15T13:49:19.199Z,3.70
2022-10-15T13:51:49.039Z,2.17
2022-10-15T13:54:18.035Z,4.40
2022-10-15T13:56:50.240Z,5.40
2022-10-15T13:59:18.591Z,2.10
2022-10-15T14:01:46.579Z,3.07
2022-10-15T14:04:17.802Z,4.77
2022-10-15T14:06:56.778Z,4.37
2022-10-15T14:09:26.323Z,4.90
2022-10-15T14:11:53.791Z,5.60
2022-10-15T14:14:27.890Z,4.03
2022-10-15T14:16:55.854Z,2.37
2022-10-15T14:19:24.143Z,5.93
2022-10-15T14:21:51.354Z,2.10
2022-10-15T14:24:21.626Z,6.77
2022-10-15T14:26:49.358Z,2.47
2022-10-15T14:29:17.694Z,2.60
2022-10-15T14:31:47.401Z,3.53
2022-10-15T14:34:31.454Z,4.80
2022-10-15T14:36:58.762Z,2.80
2022-10-15T14:39:29.877Z,2.40
2022-10-15T14:41:58.126Z,3.27
2022-10-15T14:44:25.467Z,4.33
2022-10-15T14:46:54.114Z,2.00
2022-10-15T14:49:23.559Z,4.40
2022-10-15T14:51:54.138Z,3.13
2022-10-15T14:54:24.102Z,3.57
2022-10-15T14:56:52.993Z,1.60
2022-10-15T14:59:21.130Z,4.63
2022-10-15T15:02:01.855Z,4.30
2022-10-15T15:04:38.186Z,4.87
2022-10-15T15:07:11.270Z,5.83
2022-10-15T15:09:38.471Z,3.57
2022-10-15T15:12:07.196Z,3.23
2022-10-15T15:14:34.731Z,3.53
2022-10-15T15:17:02.031Z,3.27
2022-10-15T15:19:29.542Z,9.00
2022-10-15T15:21:56.820Z,3.50
2022-10-15T15:24:24.006Z,3.27
2022-10-15T15:26:51.267Z,5.53
2022-10-15T15:29:20.263Z,5.27
2022-10-15T15:31:48.497Z,4.20
2022-10-15T15:34:16.044Z,4.37
2022-10-15T15:36:43.250Z,2.57
2022-10-15T15:39:10.443Z,2.73
2022-10-15T15:41:37.662Z,3.67
2022-10-15T15:44:04.998Z,6.83
2022-10-15T15:46:53.823Z,4.23
2022-10-15T15:49:21.019Z,7.30
2022-10-15T15:51:48.220Z,5.57
2022-10-15T15:54:15.435Z,5.70
2022-10-15T15:59:15.003Z,11.67
2022-10-15T16:01:43.752Z,4.63
2022-10-15T16:04:12.326Z,5.13
2022-10-15T16:06:41.031Z,4.43
2022-10-15T16:09:08.251Z,7.40
2022-10-15T16:11:37.626Z,6.17
2022-10-15T16:14:09.173Z,5.87
2022-10-15T16:16:36.755Z,10.77
2022-10-15T16:19:04.026Z,8.43
2022-10-15T16:21:33.026Z,6.77
2022-10-15T16:26:32.510Z,5.03
2022-10-15T16:28:59.853Z,9.93
2022-10-15T16:31:30.337Z,7.97
2022-10-15T16:33:57.992Z,8.00
2022-10-15T16:36:25.571Z,7.20
2022-10-15T16:38:54.334Z,10.97
2022-10-15T16:41:21.686Z,11.00
2022-10-15T16:43:49.394Z,10.50
2022-10-15T16:46:22.494Z,8.80
2022-10-15T16:48:53.182Z,7.23
2022-10-15T16:51:20.703Z,9.73
2022-10-15T16:53:48.299Z,8.13
2022-10-15T16:56:18.183Z,11.23
2022-10-15T16:58:45.419Z,22.70
2022-10-15T17:01:13.795Z,13.03
2022-10-15T17:03:41.763Z,10.57
2022-10-15T17:06:09.826Z,6.13
2022-10-15T17:08:38.711Z,8.10
2022-10-15T17:11:08.958Z,7.27
2022-10-15T17:13:37.522Z,7.73
2022-10-15T17:16:15.847Z,9.50
2022-10-15T17:18:43.707Z,6.17
2022-10-15T17:21:11.829Z,17.60
2022-10-15T17:23:39.118Z,6.20
2022-10-15T17:26:07.407Z,7.53
2022-10-15T17:28:34.660Z,6.40
2022-10-15T17:31:08.251Z,5.23
2022-10-15T17:33:35.888Z,8.73
2022-10-15T17:36:04.086Z,5.80
2022-10-15T17:38:31.294Z,6.93
2022-10-15T17:40:59.004Z,6.30
2022-10-15T17:43:26.491Z,11.43
2022-10-15T17:45:59.266Z,10.30
2022-10-15T17:48:28.004Z,8.53
2022-10-15T17:50:55.241Z,8.13
2022-10-15T17:53:22.454Z,9.27
2022-10-15T17:55:49.743Z,9.50
2022-10-15T17:58:17.128Z,5.03
2022-10-15T18:00:44.794Z,7.67
2022-10-15T18:03:12.089Z,7.03
2022-10-15T18:05:40.658Z,8.13
2022-10-15T18:08:07.842Z,6.80
2022-10-15T18:10:36.705Z,6.03
2022-10-15T18:13:04.299Z,7.47
2022-10-15T18:15:35.156Z,10.03
2022-10-15T18:18:05.252Z,8.23
2022-10-15T18:20:32.478Z,5.10
2022-10-15T18:23:00.986Z,8.37
2022-10-15T18:25:29.314Z,7.87
2022-10-15T18:27:56.506Z,6.67
2022-10-15T18:30:23.715Z,4.27
2022-10-15T18:32:53.201Z,6.63
2022-10-15T18:35:21.765Z,5.40
2022-10-15T18:37:49.025Z,8.23
2022-10-15T18:40:17.620Z,6.50
2022-10-15T18:42:47.748Z,10.20
2022-10-15T18:45:20.210Z,6.00
2022-10-15T18:47:47.443Z,5.73
2022-10-15T18:50:14.778Z,3.63
2022-10-15T18:52:42.423Z,9.30
2022-10-15T18:55:10.217Z,8.53
2022-10-15T18:57:43.714Z,6.37
2022-10-15T19:00:11.575Z,7.27
2022-10-15T19:02:38.822Z,6.93
2022-10-15T19:05:06.312Z,6.37
2022-10-15T19:07:33.760Z,9.30
2022-10-15T19:10:01.042Z,10.10
2022-10-15T19:12:28.550Z,5.37
2022-10-15T19:14:57.310Z,5.50
2022-10-15T19:17:24.488Z,8.80
2022-10-15T19:19:51.688Z,7.87
2022-10-15T19:22:18.952Z,8.00
2022-10-15T19:24:46.123Z,4.53
2022-10-15T19:27:13.395Z,10.30
2022-10-15T19:29:41.023Z,6.93
2022-10-15T19:32:09.543Z,7.53
2022-10-15T19:34:36.765Z,5.50
2022-10-15T19:37:03.983Z,9.80
2022-10-15T19:39:32.614Z,7.47
2022-10-15T19:41:59.882Z,6.73
2022-10-15T19:44:27.168Z,5.27
2022-10-15T19:46:54.628Z,4.93
2022-10-15T19:49:23.364Z,8.67
2022-10-15T19:51:50.996Z,5.50
2022-10-15T19:54:18.383Z,7.20
2022-10-15T19:56:45.675Z,8.43
2022-10-15T19:59:13.162Z,6.47
2022-10-15T20:01:40.398Z,3.00
2022-10-15T20:04:07.672Z,4.03
2022-10-15T20:06:37.451Z,7.50
2022-10-15T20:09:04.811Z,5.53
2022-10-15T20:11:32.130Z,5.93
2022-10-15T20:13:59.442Z,6.80
2022-10-15T20:16:28.819Z,9.93
2022-10-15T20:19:01.117Z,13.77
2022-10-15T20:21:28.640Z,5.43
2022-10-15T20:23:57.355Z,4.50
2022-10-15T20:26:24.667Z,7.60
2022-10-15T20:28:51.965Z,6.87
2022-10-15T20:31:20.430Z,5.70
2022-10-15T20:33:49.302Z,5.63
2022-10-15T20:36:22.696Z,4.83
2022-10-15T20:38:51.365Z,3.27
2022-10-15T20:41:20.344Z,12.27
2022-10-15T20:43:47.666Z,5.93
2022-10-15T20:46:17.338Z,6.73
2022-10-15T20:48:45.638Z,4.23
2022-10-15T20:51:13.768Z,4.77
2022-10-15T20:53:41.410Z,10.20
2022-10-15T20:56:08.899Z,11.30
2022-10-15T20:58:57.892Z,9.47
2022-10-15T21:01:28.556Z,5.87
2022-10-15T21:04:01.320Z,8.03
2022-10-15T21:06:28.822Z,3.87
2022-10-15T21:08:56.097Z,5.37
2022-10-15T21:11:23.290Z,4.73
2022-10-15T21:13:50.674Z,3.03
2022-10-15T21:16:17.947Z,5.20
2022-10-15T21:18:46.559Z,3.43
2022-10-15T21:21:14.596Z,5.17
2022-10-15T21:23:42.619Z,5.07
2022-10-15T21:26:10.493Z,4.10
2022-10-15T21:28:38.041Z,3.73
2022-10-15T21:31:05.541Z,6.97
2022-10-15T21:33:32.989Z,8.43
2022-10-15T21:36:10.701Z,5.90
2022-10-15T21:38:37.984Z,10.93
2022-10-15T21:41:05.482Z,4.83
2022-10-15T21:43:32.695Z,5.27
2022-10-15T21:46:04.047Z,4.50
2022-10-15T21:48:31.250Z,3.17
2022-10-15T21:50:58.549Z,3.17
2022-10-15T21:53:27.501Z,3.23
2022-10-15T21:55:54.777Z,5.83
2022-10-15T21:58:22.667Z,4.50
2022-10-15T22:00:49.858Z,4.70
2022-10-15T22:03:17.049Z,2.20
2022-10-15T22:05:44.445Z,3.90
2022-10-15T22:08:33.110Z,6.57
2022-10-15T22:11:23.314Z,6.13
2022-10-15T22:13:52.575Z,3.03
2022-10-15T22:16:20.435Z,3.17
2022-10-15T22:18:47.956Z,2.83
2022-10-15T22:21:16.869Z,5.77
2022-10-15T22:23:44.750Z,3.83
2022-10-15T22:26:12.184Z,3.37
2022-10-15T22:28:39.724Z,4.20
2022-10-15T22:31:09.205Z,4.67
2022-10-15T22:33:36.623Z,3.90
2022-10-15T22:36:04.827Z,4.33
2022-10-15T22:38:32.297Z,3.80
2022-10-15T22:40:59.734Z,3.73
2022-10-15T22:43:26.925Z,3.93
2022-10-15T22:45:54.147Z,5.23
2022-10-15T22:48:22.800Z,3.60
2022-10-15T22:50:55.790Z,3.70
2022-10-15T22:53:23.029Z,3.40
2022-10-15T22:55:55.313Z,7.60
2022-10-15T22:58:22.497Z,2.17
2022-10-15T23:00:49.746Z,5.80
2022-10-15T23:03:17.064Z,3.73
2022-10-15T23:05:51.114Z,3.93
2022-10-15T23:08:18.369Z,4.33
2022-10-15T23:10:45.529Z,3.10
2022-10-15T23:13:12.729Z,7.13
2022-10-15T23:15:39.940Z,3.53
2022-10-15T23:18:07.187Z,2.63
2022-10-15T23:20:37.167Z,2.80
2022-10-15T23:23:06.187Z,3.07
2022-10-15T23:25:37.217Z,3.60
2022-10-15T23:28:04.615Z,3.93
2022-10-15T23:30:31.847Z,3.40
2022-10-15T23:32:59.039Z,5.00
2022-10-15T23:35:26.324Z,2.97
2022-10-15T23:37:53.594Z,3.47
2022-10-15T23:40:22.127Z,4.20
2022-10-15T23:42:49.368Z,4.20
2022-10-15T23:45:16.546Z,3.27
2022-10-15T23:47:43.760Z,2.90
2022-10-15T23:50:10.984Z,2.57
2022-10-15T23:52:38.217Z,4.00
2022-10-15T23:55:05.759Z,4.27
2022-10-15T23:57:34.484Z,2.20
